sensor_id;sensor_type;location;lat;lon;timestamp;P1;durP1;ratioP1;P2;durP2;ratioP2
70367;SDS011;57789;53.868;10.728;2022-11-14T00:00:38;33.67;;;20.27;;
70367;SDS011;57789;53.868;10.728;2022-11-14T00:03:05;32.13;;;19.07;;
70367;SDS011;57789;53.868;10.728;2022-11-14T00:05:32;30.13;;;18.80;;
70367;SDS011;57789;53.868;10.728;2022-11-14T00:08:03;29.40;;;17.67;;
70367;SDS011;57789;53.868;10.728;2022-11-14T00:10:29;30.17;;;18.60;;
70367;SDS011;57789;53.868;10.728;2022-11-14T00:12:54;32.60;;;20.00;;
70367;SDS011;57789;53.868;10.728;2022-11-14T00:15:20;27.10;;;17.13;;
70367;SDS011;57789;53.868;10.728;2022-11-14T00:17:45;37.00;;;20.00;;
70367;SDS011;57789;53.868;10.728;2022-11-14T00:20:11;28.20;;;17.90;;
70367;SDS011;57789;53.868;10.728;2022-11-14T00:22:37;30.50;;;17.40;;
70367;SDS011;57789;53.868;10.728;2022-11-14T00:25:03;29.10;;;17.70;;
70367;SDS011;57789;53.868;10.728;2022-11-14T00:27:29;29.20;;;18.20;;
70367;SDS011;57789;53.868;10.728;2022-11-14T00:29:54;29.83;;;19.50;;
70367;SDS011;57789;53.868;10.728;2022-11-14T00:32:20;40.27;;;23.87;;
70367;SDS011;57789;53.868;10.728;2022-11-14T00:34:46;60.97;;;34.97;;
70367;SDS011;57789;53.868;10.728;2022-11-14T00:37:13;41.70;;;25.13;;
70367;SDS011;57789;53.868;10.728;2022-11-14T00:39:38;41.93;;;24.63;;
70367;SDS011;57789;53.868;10.728;2022-11-14T00:42:04;36.80;;;23.43;;
70367;SDS011;57789;53.868;10.728;2022-11-14T00:44:30;35.13;;;20.37;;
70367;SDS011;57789;53.868;10.728;2022-11-14T00:46:55;39.97;;;21.70;;
70367;SDS011;57789;53.868;10.728;2022-11-14T00:49:21;40.00;;;22.67;;
70367;SDS011;57789;53.868;10.728;2022-11-14T00:51:46;40.60;;;24.10;;
70367;SDS011;57789;53.868;10.728;2022-11-14T00:54:12;29.30;;;19.27;;
70367;SDS011;57789;53.868;10.728;2022-11-14T00:56:38;39.20;;;23.50;;
70367;SDS011;57789;53.868;10.728;2022-11-14T00:59:03;32.93;;;20.30;;
70367;SDS011;57789;53.868;10.728;2022-11-14T01:01:29;32.17;;;20.90;;
70367;SDS011;57789;53.868;10.728;2022-11-14T01:03:55;30.40;;;19.57;;
70367;SDS011;57789;53.868;10.728;2022-11-14T01:06:20;35.00;;;20.93;;
70367;SDS011;57789;53.868;10.728;2022-11-14T01:08:48;34.33;;;21.07;;
70367;SDS011;57789;53.868;10.728;2022-11-14T01:11:16;32.40;;;20.70;;
70367;SDS011;57789;53.868;10.728;2022-11-14T01:13:43;33.77;;;20.27;;
70367;SDS011;57789;53.868;10.728;2022-11-14T01:16:10;34.20;;;19.90;;
70367;SDS011;57789;53.868;10.728;2022-11-14T01:18:36;39.37;;;20.23;;
70367;SDS011;57789;53.868;10.728;2022-11-14T01:21:03;29.97;;;18.77;;
70367;SDS011;57789;53.868;10.728;2022-11-14T01:23:33;29.30;;;18.90;;
70367;SDS011;57789;53.868;10.728;2022-11-14T01:26:03;36.17;;;21.33;;
70367;SDS011;57789;53.868;10.728;2022-11-14T01:28:31;34.00;;;20.57;;
70367;SDS011;57789;53.868;10.728;2022-11-14T01:31:06;29.07;;;19.03;;
70367;SDS011;57789;53.868;10.728;2022-11-14T01:33:39;33.83;;;19.00;;
70367;SDS011;57789;53.868;10.728;2022-11-14T01:36:05;30.07;;;18.93;;
70367;SDS011;57789;53.868;10.728;2022-11-14T01:38:32;30.97;;;18.90;;
70367;SDS011;57789;53.868;10.728;2022-11-14T01:40:58;34.70;;;21.50;;
70367;SDS011;57789;53.868;10.728;2022-11-14T01:43:26;38.73;;;22.10;;
70367;SDS011;57789;53.868;10.728;2022-11-14T01:51:11;47.87;;;25.13;;
70367;SDS011;57789;53.868;10.728;2022-11-14T01:53:46;36.43;;;20.97;;
70367;SDS011;57789;53.868;10.728;2022-11-14T01:56:14;34.43;;;21.50;;
70367;SDS011;57789;53.868;10.728;2022-11-14T01:58:43;37.70;;;22.33;;
70367;SDS011;57789;53.868;10.728;2022-11-14T02:01:12;43.40;;;26.43;;
70367;SDS011;57789;53.868;10.728;2022-11-14T02:03:39;38.83;;;21.80;;
70367;SDS011;57789;53.868;10.728;2022-11-14T02:06:08;32.80;;;19.90;;
70367;SDS011;57789;53.868;10.728;2022-11-14T02:08:37;36.23;;;21.13;;
70367;SDS011;57789;53.868;10.728;2022-11-14T02:11:03;32.97;;;20.17;;
70367;SDS011;57789;53.868;10.728;2022-11-14T02:13:29;36.77;;;22.57;;
70367;SDS011;57789;53.868;10.728;2022-11-14T02:15:55;30.30;;;19.30;;
70367;SDS011;57789;53.868;10.728;2022-11-14T02:18:21;29.13;;;18.53;;
70367;SDS011;57789;53.868;10.728;2022-11-14T02:20:46;33.47;;;19.60;;
70367;SDS011;57789;53.868;10.728;2022-11-14T02:23:12;35.47;;;20.80;;
70367;SDS011;57789;53.868;10.728;2022-11-14T02:25:38;30.77;;;19.70;;
70367;SDS011;57789;53.868;10.728;2022-11-14T02:28:06;36.53;;;19.83;;
70367;SDS011;57789;53.868;10.728;2022-11-14T02:30:33;30.90;;;19.20;;
70367;SDS011;57789;53.868;10.728;2022-11-14T02:32:59;28.73;;;18.30;;
70367;SDS011;57789;53.868;10.728;2022-11-14T02:35:24;34.80;;;18.87;;
70367;SDS011;57789;53.868;10.728;2022-11-14T02:37:50;29.07;;;17.67;;
70367;SDS011;57789;53.868;10.728;2022-11-14T02:40:16;30.73;;;19.50;;
70367;SDS011;57789;53.868;10.728;2022-11-14T02:42:41;38.10;;;19.13;;
70367;SDS011;57789;53.868;10.728;2022-11-14T02:45:07;31.70;;;19.40;;
70367;SDS011;57789;53.868;10.728;2022-11-14T02:47:34;32.47;;;19.13;;
70367;SDS011;57789;53.868;10.728;2022-11-14T02:50:00;33.37;;;18.80;;
70367;SDS011;57789;53.868;10.728;2022-11-14T02:52:25;34.20;;;19.03;;
70367;SDS011;57789;53.868;10.728;2022-11-14T02:54:51;34.30;;;19.10;;
70367;SDS011;57789;53.868;10.728;2022-11-14T02:57:17;31.73;;;19.00;;
70367;SDS011;57789;53.868;10.728;2022-11-14T02:59:42;30.23;;;18.00;;
70367;SDS011;57789;53.868;10.728;2022-11-14T03:02:08;33.33;;;20.00;;
70367;SDS011;57789;53.868;10.728;2022-11-14T03:04:33;31.80;;;18.37;;
70367;SDS011;57789;53.868;10.728;2022-11-14T03:06:59;32.33;;;19.27;;
70367;SDS011;57789;53.868;10.728;2022-11-14T03:09:25;27.57;;;17.87;;
70367;SDS011;57789;53.868;10.728;2022-11-14T03:11:50;35.40;;;20.30;;
70367;SDS011;57789;53.868;10.728;2022-11-14T03:14:16;29.63;;;17.40;;
70367;SDS011;57789;53.868;10.728;2022-11-14T03:16:41;29.60;;;18.87;;
70367;SDS011;57789;53.868;10.728;2022-11-14T03:19:07;34.80;;;20.57;;
70367;SDS011;57789;53.868;10.728;2022-11-14T03:21:32;31.57;;;19.60;;
70367;SDS011;57789;53.868;10.728;2022-11-14T03:23:58;32.93;;;18.77;;
70367;SDS011;57789;53.868;10.728;2022-11-14T03:26:24;29.83;;;18.17;;
70367;SDS011;57789;53.868;10.728;2022-11-14T03:28:49;30.63;;;18.03;;
70367;SDS011;57789;53.868;10.728;2022-11-14T03:31:15;31.50;;;18.57;;
70367;SDS011;57789;53.868;10.728;2022-11-14T03:33:41;30.43;;;19.33;;
70367;SDS011;57789;53.868;10.728;2022-11-14T03:36:06;31.03;;;18.60;;
70367;SDS011;57789;53.868;10.728;2022-11-14T03:38:32;28.13;;;18.00;;
70367;SDS011;57789;53.868;10.728;2022-11-14T03:40:59;25.90;;;17.20;;
70367;SDS011;57789;53.868;10.728;2022-11-14T03:43:25;31.77;;;19.50;;
70367;SDS011;57789;53.868;10.728;2022-11-14T03:45:56;28.77;;;18.00;;
70367;SDS011;57789;53.868;10.728;2022-11-14T03:48:23;27.83;;;17.70;;
70367;SDS011;57789;53.868;10.728;2022-11-14T03:50:48;30.47;;;19.63;;
70367;SDS011;57789;53.868;10.728;2022-11-14T03:53:14;30.53;;;18.83;;
70367;SDS011;57789;53.868;10.728;2022-11-14T03:55:41;28.67;;;17.10;;
70367;SDS011;57789;53.868;10.728;2022-11-14T03:58:08;29.00;;;17.90;;
70367;SDS011;57789;53.868;10.728;2022-11-14T04:00:33;31.27;;;18.77;;
70367;SDS011;57789;53.868;10.728;2022-11-14T04:02:59;27.10;;;17.60;;
70367;SDS011;57789;53.868;10.728;2022-11-14T04:05:25;30.77;;;18.83;;
70367;SDS011;57789;53.868;10.728;2022-11-14T04:07:50;31.23;;;20.07;;
70367;SDS011;57789;53.868;10.728;2022-11-14T04:10:16;31.90;;;18.30;;
70367;SDS011;57789;53.868;10.728;2022-11-14T04:12:52;31.60;;;18.77;;
70367;SDS011;57789;53.868;10.728;2022-11-14T04:15:18;30.53;;;17.57;;
70367;SDS011;57789;53.868;10.728;2022-11-14T04:17:44;31.67;;;17.90;;
70367;SDS011;57789;53.868;10.728;2022-11-14T04:20:11;31.87;;;18.50;;
70367;SDS011;57789;53.868;10.728;2022-11-14T04:22:38;31.57;;;20.10;;
70367;SDS011;57789;53.868;10.728;2022-11-14T04:25:04;31.03;;;18.30;;
70367;SDS011;57789;53.868;10.728;2022-11-14T04:27:30;31.80;;;19.80;;
70367;SDS011;57789;53.868;10.728;2022-11-14T04:29:56;27.73;;;17.07;;
70367;SDS011;57789;53.868;10.728;2022-11-14T04:32:21;28.50;;;17.87;;
70367;SDS011;57789;53.868;10.728;2022-11-14T04:34:47;29.67;;;19.10;;
70367;SDS011;57789;53.868;10.728;2022-11-14T04:37:13;33.40;;;19.43;;
70367;SDS011;57789;53.868;10.728;2022-11-14T04:39:38;29.57;;;18.27;;
70367;SDS011;57789;53.868;10.728;2022-11-14T04:42:04;31.83;;;17.63;;
70367;SDS011;57789;53.868;10.728;2022-11-14T04:44:30;27.20;;;17.40;;
70367;SDS011;57789;53.868;10.728;2022-11-14T04:46:55;32.13;;;18.43;;
70367;SDS011;57789;53.868;10.728;2022-11-14T04:49:21;30.70;;;18.47;;
70367;SDS011;57789;53.868;10.728;2022-11-14T04:51:47;30.90;;;18.10;;
70367;SDS011;57789;53.868;10.728;2022-11-14T04:54:12;32.53;;;18.07;;
70367;SDS011;57789;53.868;10.728;2022-11-14T04:56:38;34.07;;;19.63;;
70367;SDS011;57789;53.868;10.728;2022-11-14T04:59:04;31.77;;;19.10;;
70367;SDS011;57789;53.868;10.728;2022-11-14T05:01:29;30.90;;;18.63;;
70367;SDS011;57789;53.868;10.728;2022-11-14T05:03:55;29.30;;;17.73;;
70367;SDS011;57789;53.868;10.728;2022-11-14T05:06:21;31.20;;;19.93;;
70367;SDS011;57789;53.868;10.728;2022-11-14T05:08:46;30.10;;;18.63;;
70367;SDS011;57789;53.868;10.728;2022-11-14T05:11:16;32.67;;;18.63;;
70367;SDS011;57789;53.868;10.728;2022-11-14T05:13:43;35.80;;;20.27;;
70367;SDS011;57789;53.868;10.728;2022-11-14T05:16:09;32.83;;;18.70;;
70367;SDS011;57789;53.868;10.728;2022-11-14T05:18:35;35.97;;;19.70;;
70367;SDS011;57789;53.868;10.728;2022-11-14T05:21:02;32.03;;;19.20;;
70367;SDS011;57789;53.868;10.728;2022-11-14T05:23:28;36.00;;;19.83;;
70367;SDS011;57789;53.868;10.728;2022-11-14T05:26:03;35.03;;;19.83;;
70367;SDS011;57789;53.868;10.728;2022-11-14T05:28:31;36.07;;;19.63;;
70367;SDS011;57789;53.868;10.728;2022-11-14T05:31:04;31.43;;;19.03;;
70367;SDS011;57789;53.868;10.728;2022-11-14T05:33:32;32.87;;;17.73;;
70367;SDS011;57789;53.868;10.728;2022-11-14T05:36:05;30.47;;;18.50;;
70367;SDS011;57789;53.868;10.728;2022-11-14T05:38:32;34.47;;;20.40;;
70367;SDS011;57789;53.868;10.728;2022-11-14T05:40:58;36.47;;;18.87;;
70367;SDS011;57789;53.868;10.728;2022-11-14T05:43:24;35.67;;;19.87;;
70367;SDS011;57789;53.868;10.728;2022-11-14T05:45:57;31.97;;;18.10;;
70367;SDS011;57789;53.868;10.728;2022-11-14T05:48:26;34.30;;;20.00;;
70367;SDS011;57789;53.868;10.728;2022-11-14T05:50:53;34.30;;;17.90;;
70367;SDS011;57789;53.868;10.728;2022-11-14T05:53:20;35.10;;;20.93;;
70367;SDS011;57789;53.868;10.728;2022-11-14T05:55:45;31.77;;;18.50;;
70367;SDS011;57789;53.868;10.728;2022-11-14T05:58:11;36.50;;;18.97;;
70367;SDS011;57789;53.868;10.728;2022-11-14T06:00:36;37.90;;;20.97;;
70367;SDS011;57789;53.868;10.728;2022-11-14T06:03:02;37.97;;;20.83;;
70367;SDS011;57789;53.868;10.728;2022-11-14T06:05:28;39.10;;;20.33;;
70367;SDS011;57789;53.868;10.728;2022-11-14T06:07:54;37.13;;;20.10;;
70367;SDS011;57789;53.868;10.728;2022-11-14T06:10:21;38.03;;;20.80;;
70367;SDS011;57789;53.868;10.728;2022-11-14T06:12:47;34.87;;;19.37;;
70367;SDS011;57789;53.868;10.728;2022-11-14T06:15:12;34.53;;;20.30;;
70367;SDS011;57789;53.868;10.728;2022-11-14T06:17:38;38.50;;;21.87;;
70367;SDS011;57789;53.868;10.728;2022-11-14T06:20:04;40.30;;;21.97;;
70367;SDS011;57789;53.868;10.728;2022-11-14T06:22:30;41.53;;;22.93;;
70367;SDS011;57789;53.868;10.728;2022-11-14T06:24:57;47.40;;;22.53;;
70367;SDS011;57789;53.868;10.728;2022-11-14T06:27:22;46.43;;;23.73;;
70367;SDS011;57789;53.868;10.728;2022-11-14T06:29:48;42.27;;;22.03;;
70367;SDS011;57789;53.868;10.728;2022-11-14T06:32:14;45.43;;;22.57;;
70367;SDS011;57789;53.868;10.728;2022-11-14T06:34:39;43.87;;;23.57;;
70367;SDS011;57789;53.868;10.728;2022-11-14T06:37:05;48.27;;;25.60;;
70367;SDS011;57789;53.868;10.728;2022-11-14T06:39:30;42.70;;;23.27;;
70367;SDS011;57789;53.868;10.728;2022-11-14T06:41:56;46.37;;;23.93;;
70367;SDS011;57789;53.868;10.728;2022-11-14T06:44:22;51.40;;;24.70;;
70367;SDS011;57789;53.868;10.728;2022-11-14T06:46:48;44.83;;;23.53;;
70367;SDS011;57789;53.868;10.728;2022-11-14T06:49:13;53.87;;;25.90;;
70367;SDS011;57789;53.868;10.728;2022-11-14T06:51:39;48.50;;;24.30;;
70367;SDS011;57789;53.868;10.728;2022-11-14T06:54:05;48.07;;;22.70;;
70367;SDS011;57789;53.868;10.728;2022-11-14T06:56:30;44.23;;;23.10;;
70367;SDS011;57789;53.868;10.728;2022-11-14T06:58:56;54.20;;;26.77;;
70367;SDS011;57789;53.868;10.728;2022-11-14T07:01:22;53.53;;;27.23;;
70367;SDS011;57789;53.868;10.728;2022-11-14T07:03:52;55.30;;;27.57;;
70367;SDS011;57789;53.868;10.728;2022-11-14T07:06:19;53.53;;;25.90;;
70367;SDS011;57789;53.868;10.728;2022-11-14T07:08:46;57.90;;;29.70;;
70367;SDS011;57789;53.868;10.728;2022-11-14T07:11:12;57.83;;;28.43;;
70367;SDS011;57789;53.868;10.728;2022-11-14T07:13:53;53.77;;;26.20;;
70367;SDS011;57789;53.868;10.728;2022-11-14T07:16:25;59.17;;;27.10;;
70367;SDS011;57789;53.868;10.728;2022-11-14T07:18:56;55.70;;;27.27;;
70367;SDS011;57789;53.868;10.728;2022-11-14T07:21:22;48.10;;;25.60;;
70367;SDS011;57789;53.868;10.728;2022-11-14T07:23:49;52.27;;;26.27;;
70367;SDS011;57789;53.868;10.728;2022-11-14T07:26:14;54.63;;;27.53;;
70367;SDS011;57789;53.868;10.728;2022-11-14T07:28:41;55.50;;;27.00;;
70367;SDS011;57789;53.868;10.728;2022-11-14T07:31:09;62.43;;;27.67;;
70367;SDS011;57789;53.868;10.728;2022-11-14T07:33:37;51.80;;;25.63;;
70367;SDS011;57789;53.868;10.728;2022-11-14T07:36:03;50.23;;;25.43;;
70367;SDS011;57789;53.868;10.728;2022-11-14T07:38:30;55.27;;;28.17;;
70367;SDS011;57789;53.868;10.728;2022-11-14T07:40:57;61.60;;;27.27;;
70367;SDS011;57789;53.868;10.728;2022-11-14T07:43:24;60.97;;;27.43;;
70367;SDS011;57789;53.868;10.728;2022-11-14T07:45:50;60.80;;;28.43;;
70367;SDS011;57789;53.868;10.728;2022-11-14T07:48:16;56.80;;;27.40;;
70367;SDS011;57789;53.868;10.728;2022-11-14T07:50:42;53.97;;;27.43;;
70367;SDS011;57789;53.868;10.728;2022-11-14T07:53:08;54.90;;;27.33;;
70367;SDS011;57789;53.868;10.728;2022-11-14T07:55:35;52.70;;;25.00;;
70367;SDS011;57789;53.868;10.728;2022-11-14T07:58:00;65.20;;;29.03;;
70367;SDS011;57789;53.868;10.728;2022-11-14T08:00:26;59.47;;;28.53;;
70367;SDS011;57789;53.868;10.728;2022-11-14T08:02:52;54.50;;;27.37;;
70367;SDS011;57789;53.868;10.728;2022-11-14T08:05:18;62.97;;;28.83;;
70367;SDS011;57789;53.868;10.728;2022-11-14T08:07:44;57.07;;;28.83;;
70367;SDS011;57789;53.868;10.728;2022-11-14T08:10:10;59.00;;;27.10;;
70367;SDS011;57789;53.868;10.728;2022-11-14T08:12:37;58.50;;;27.50;;
70367;SDS011;57789;53.868;10.728;2022-11-14T08:15:08;57.23;;;27.10;;
70367;SDS011;57789;53.868;10.728;2022-11-14T08:17:35;53.80;;;26.00;;
70367;SDS011;57789;53.868;10.728;2022-11-14T08:20:00;54.83;;;27.67;;
70367;SDS011;57789;53.868;10.728;2022-11-14T08:22:26;58.03;;;26.90;;
70367;SDS011;57789;53.868;10.728;2022-11-14T08:24:52;61.50;;;30.90;;
70367;SDS011;57789;53.868;10.728;2022-11-14T08:27:18;64.53;;;33.10;;
70367;SDS011;57789;53.868;10.728;2022-11-14T08:29:43;69.37;;;32.13;;
70367;SDS011;57789;53.868;10.728;2022-11-14T08:32:09;58.63;;;28.03;;
70367;SDS011;57789;53.868;10.728;2022-11-14T08:34:35;52.77;;;28.23;;
70367;SDS011;57789;53.868;10.728;2022-11-14T08:37:01;57.13;;;26.90;;
70367;SDS011;57789;53.868;10.728;2022-11-14T08:39:27;59.93;;;27.40;;
70367;SDS011;57789;53.868;10.728;2022-11-14T08:41:53;57.20;;;28.70;;
70367;SDS011;57789;53.868;10.728;2022-11-14T08:44:19;88.53;;;43.37;;
70367;SDS011;57789;53.868;10.728;2022-11-14T08:46:44;71.17;;;34.90;;
70367;SDS011;57789;53.868;10.728;2022-11-14T08:49:10;70.47;;;35.23;;
70367;SDS011;57789;53.868;10.728;2022-11-14T08:51:35;84.17;;;38.53;;
70367;SDS011;57789;53.868;10.728;2022-11-14T08:54:01;68.77;;;31.60;;
70367;SDS011;57789;53.868;10.728;2022-11-14T08:56:27;63.33;;;26.63;;
70367;SDS011;57789;53.868;10.728;2022-11-14T08:58:53;55.33;;;25.77;;
70367;SDS011;57789;53.868;10.728;2022-11-14T09:01:18;83.90;;;39.53;;
70367;SDS011;57789;53.868;10.728;2022-11-14T09:03:44;60.13;;;28.23;;
70367;SDS011;57789;53.868;10.728;2022-11-14T09:06:09;62.60;;;30.40;;
70367;SDS011;57789;53.868;10.728;2022-11-14T09:08:35;70.23;;;34.00;;
70367;SDS011;57789;53.868;10.728;2022-11-14T09:11:01;77.30;;;36.00;;
70367;SDS011;57789;53.868;10.728;2022-11-14T09:13:30;70.83;;;34.03;;
70367;SDS011;57789;53.868;10.728;2022-11-14T09:15:57;63.93;;;30.70;;
70367;SDS011;57789;53.868;10.728;2022-11-14T09:18:22;59.83;;;29.23;;
70367;SDS011;57789;53.868;10.728;2022-11-14T09:20:48;60.70;;;29.13;;
70367;SDS011;57789;53.868;10.728;2022-11-14T09:23:14;68.50;;;32.80;;
70367;SDS011;57789;53.868;10.728;2022-11-14T09:25:39;65.03;;;31.13;;
70367;SDS011;57789;53.868;10.728;2022-11-14T09:28:05;75.37;;;37.17;;
70367;SDS011;57789;53.868;10.728;2022-11-14T09:30:33;63.77;;;28.80;;
70367;SDS011;57789;53.868;10.728;2022-11-14T09:32:59;59.40;;;28.83;;
70367;SDS011;57789;53.868;10.728;2022-11-14T09:35:26;60.40;;;30.43;;
70367;SDS011;57789;53.868;10.728;2022-11-14T09:38:05;61.40;;;29.17;;
70367;SDS011;57789;53.868;10.728;2022-11-14T09:40:38;68.53;;;34.10;;
70367;SDS011;57789;53.868;10.728;2022-11-14T09:43:18;72.87;;;36.00;;
70367;SDS011;57789;53.868;10.728;2022-11-14T09:45:50;61.80;;;27.47;;
70367;SDS011;57789;53.868;10.728;2022-11-14T09:48:20;56.77;;;28.30;;
70367;SDS011;57789;53.868;10.728;2022-11-14T09:51:13;68.13;;;33.47;;
70367;SDS011;57789;53.868;10.728;2022-11-14T09:56:38;73.97;;;33.43;;
70367;SDS011;57789;53.868;10.728;2022-11-14T09:59:07;66.43;;;31.80;;
70367;SDS011;57789;53.868;10.728;2022-11-14T10:04:42;56.97;;;28.00;;
70367;SDS011;57789;53.868;10.728;2022-11-14T10:10:47;56.10;;;27.77;;
70367;SDS011;57789;53.868;10.728;2022-11-14T10:19:33;56.50;;;28.20;;
70367;SDS011;57789;53.868;10.728;2022-11-14T10:25:08;53.60;;;27.37;;
70367;SDS011;57789;53.868;10.728;2022-11-14T10:27:55;54.60;;;27.80;;
70367;SDS011;57789;53.868;10.728;2022-11-14T10:30:22;49.27;;;26.53;;
70367;SDS011;57789;53.868;10.728;2022-11-14T10:38:28;45.33;;;25.50;;
70367;SDS011;57789;53.868;10.728;2022-11-14T10:41:03;48.27;;;26.70;;
70367;SDS011;57789;53.868;10.728;2022-11-14T10:43:38;63.23;;;30.00;;
70367;SDS011;57789;53.868;10.728;2022-11-14T10:48:45;49.90;;;25.80;;
70367;SDS011;57789;53.868;10.728;2022-11-14T10:56:34;49.93;;;25.93;;
70367;SDS011;57789;53.868;10.728;2022-11-14T10:59:20;50.33;;;27.27;;
70367;SDS011;57789;53.868;10.728;2022-11-14T11:06:45;60.30;;;31.87;;
70367;SDS011;57789;53.868;10.728;2022-11-14T11:09:14;50.07;;;25.23;;
70367;SDS011;57789;53.868;10.728;2022-11-14T11:12:02;47.50;;;23.93;;
70367;SDS011;57789;53.868;10.728;2022-11-14T11:14:29;49.20;;;26.53;;
70367;SDS011;57789;53.868;10.728;2022-11-14T11:19:40;48.33;;;25.93;;
70367;SDS011;57789;53.868;10.728;2022-11-14T11:25:21;46.00;;;26.37;;
70367;SDS011;57789;53.868;10.728;2022-11-14T11:28:05;57.33;;;29.20;;
70367;SDS011;57789;53.868;10.728;2022-11-14T11:30:36;47.23;;;26.03;;
70367;SDS011;57789;53.868;10.728;2022-11-14T11:33:14;66.17;;;36.33;;
70367;SDS011;57789;53.868;10.728;2022-11-14T11:35:43;51.07;;;22.93;;
70367;SDS011;57789;53.868;10.728;2022-11-14T11:38:10;48.20;;;25.87;;
70367;SDS011;57789;53.868;10.728;2022-11-14T11:40:36;110.70;;;56.60;;
70367;SDS011;57789;53.868;10.728;2022-11-14T11:43:08;53.83;;;28.47;;
70367;SDS011;57789;53.868;10.728;2022-11-14T11:45:39;52.60;;;26.33;;
70367;SDS011;57789;53.868;10.728;2022-11-14T11:48:18;47.07;;;26.40;;
70367;SDS011;57789;53.868;10.728;2022-11-14T11:50:45;48.73;;;24.00;;
70367;SDS011;57789;53.868;10.728;2022-11-14T11:55:42;44.70;;;24.67;;
70367;SDS011;57789;53.868;10.728;2022-11-14T12:00:40;51.80;;;27.40;;
70367;SDS011;57789;53.868;10.728;2022-11-14T12:03:12;48.27;;;25.50;;
70367;SDS011;57789;53.868;10.728;2022-11-14T12:11:13;52.60;;;24.90;;
70367;SDS011;57789;53.868;10.728;2022-11-14T12:27:10;44.40;;;23.97;;
70367;SDS011;57789;53.868;10.728;2022-11-14T12:29:49;45.77;;;24.07;;
70367;SDS011;57789;53.868;10.728;2022-11-14T12:33:00;47.07;;;23.20;;
70367;SDS011;57789;53.868;10.728;2022-11-14T12:35:23;44.43;;;23.10;;
70367;SDS011;57789;53.868;10.728;2022-11-14T12:37:54;46.30;;;23.83;;
70367;SDS011;57789;53.868;10.728;2022-11-14T12:42:49;49.90;;;23.33;;
70367;SDS011;57789;53.868;10.728;2022-11-14T12:50:53;52.57;;;25.47;;
70367;SDS011;57789;53.868;10.728;2022-11-14T13:02:15;49.07;;;24.13;;
70367;SDS011;57789;53.868;10.728;2022-11-14T13:08:06;47.70;;;26.17;;
70367;SDS011;57789;53.868;10.728;2022-11-14T13:10:37;48.00;;;26.67;;
70367;SDS011;57789;53.868;10.728;2022-11-14T13:15:57;47.67;;;25.30;;
70367;SDS011;57789;53.868;10.728;2022-11-14T13:27:27;46.57;;;24.30;;
70367;SDS011;57789;53.868;10.728;2022-11-14T13:29:57;45.47;;;23.30;;
70367;SDS011;57789;53.868;10.728;2022-11-14T13:35:16;46.10;;;23.87;;
70367;SDS011;57789;53.868;10.728;2022-11-14T13:49:28;42.23;;;24.50;;
70367;SDS011;57789;53.868;10.728;2022-11-14T13:52:04;41.47;;;22.40;;
70367;SDS011;57789;53.868;10.728;2022-11-14T13:54:30;41.73;;;22.90;;
70367;SDS011;57789;53.868;10.728;2022-11-14T13:57:00;40.87;;;22.20;;
70367;SDS011;57789;53.868;10.728;2022-11-14T14:05:09;42.93;;;23.63;;
70367;SDS011;57789;53.868;10.728;2022-11-14T14:08:13;82.70;;;43.83;;
70367;SDS011;57789;53.868;10.728;2022-11-14T14:13:39;44.43;;;23.47;;
70367;SDS011;57789;53.868;10.728;2022-11-14T14:21:30;49.20;;;26.37;;
70367;SDS011;57789;53.868;10.728;2022-11-14T14:32:25;48.13;;;25.83;;
70367;SDS011;57789;53.868;10.728;2022-11-14T14:34:51;51.27;;;25.10;;
70367;SDS011;57789;53.868;10.728;2022-11-14T14:37:23;67.07;;;35.30;;
70367;SDS011;57789;53.868;10.728;2022-11-14T14:39:54;58.43;;;26.57;;
70367;SDS011;57789;53.868;10.728;2022-11-14T14:42:21;63.83;;;34.37;;
70367;SDS011;57789;53.868;10.728;2022-11-14T14:44:47;59.50;;;31.07;;
70367;SDS011;57789;53.868;10.728;2022-11-14T14:47:14;51.13;;;26.40;;
70367;SDS011;57789;53.868;10.728;2022-11-14T14:50:04;55.37;;;27.00;;
70367;SDS011;57789;53.868;10.728;2022-11-14T14:52:37;47.77;;;23.40;;
70367;SDS011;57789;53.868;10.728;2022-11-14T14:55:03;45.20;;;24.97;;
70367;SDS011;57789;53.868;10.728;2022-11-14T14:57:30;58.53;;;30.70;;
70367;SDS011;57789;53.868;10.728;2022-11-14T15:00:00;48.03;;;25.00;;
70367;SDS011;57789;53.868;10.728;2022-11-14T15:02:31;50.67;;;25.80;;
70367;SDS011;57789;53.868;10.728;2022-11-14T15:04:58;49.20;;;26.07;;
70367;SDS011;57789;53.868;10.728;2022-11-14T15:07:25;48.63;;;23.27;;
70367;SDS011;57789;53.868;10.728;2022-11-14T15:12:23;44.37;;;22.90;;
70367;SDS011;57789;53.868;10.728;2022-11-14T15:14:50;55.27;;;26.77;;
70367;SDS011;57789;53.868;10.728;2022-11-14T15:17:20;46.77;;;24.90;;
70367;SDS011;57789;53.868;10.728;2022-11-14T15:19:46;51.30;;;23.93;;
70367;SDS011;57789;53.868;10.728;2022-11-14T15:24:44;57.40;;;26.03;;
70367;SDS011;57789;53.868;10.728;2022-11-14T15:27:30;41.10;;;22.40;;
70367;SDS011;57789;53.868;10.728;2022-11-14T15:29:58;68.90;;;36.87;;
70367;SDS011;57789;53.868;10.728;2022-11-14T15:32:26;153.87;;;77.60;;
70367;SDS011;57789;53.868;10.728;2022-11-14T15:35:09;63.53;;;30.43;;
70367;SDS011;57789;53.868;10.728;2022-11-14T15:40:36;79.50;;;35.57;;
70367;SDS011;57789;53.868;10.728;2022-11-14T15:46:01;54.70;;;27.47;;
70367;SDS011;57789;53.868;10.728;2022-11-14T15:48:28;60.40;;;32.23;;
70367;SDS011;57789;53.868;10.728;2022-11-14T15:50:54;57.43;;;29.40;;
70367;SDS011;57789;53.868;10.728;2022-11-14T15:53:24;72.13;;;33.77;;
70367;SDS011;57789;53.868;10.728;2022-11-14T15:55:52;52.50;;;25.63;;
70367;SDS011;57789;53.868;10.728;2022-11-14T15:58:17;68.83;;;29.90;;
70367;SDS011;57789;53.868;10.728;2022-11-14T16:00:44;51.30;;;26.17;;
70367;SDS011;57789;53.868;10.728;2022-11-14T16:03:14;49.03;;;26.40;;
70367;SDS011;57789;53.868;10.728;2022-11-14T16:05:42;49.00;;;24.83;;
70367;SDS011;57789;53.868;10.728;2022-11-14T16:08:10;82.10;;;38.53;;
70367;SDS011;57789;53.868;10.728;2022-11-14T16:10:36;95.20;;;45.10;;
70367;SDS011;57789;53.868;10.728;2022-11-14T16:13:03;78.13;;;42.13;;
70367;SDS011;57789;53.868;10.728;2022-11-14T16:15:29;94.03;;;43.53;;
70367;SDS011;57789;53.868;10.728;2022-11-14T16:17:55;63.07;;;29.97;;
70367;SDS011;57789;53.868;10.728;2022-11-14T16:20:22;99.50;;;48.97;;
70367;SDS011;57789;53.868;10.728;2022-11-14T16:22:50;60.33;;;31.53;;
70367;SDS011;57789;53.868;10.728;2022-11-14T16:27:53;64.03;;;31.50;;
70367;SDS011;57789;53.868;10.728;2022-11-14T16:30:20;56.27;;;30.17;;
70367;SDS011;57789;53.868;10.728;2022-11-14T16:32:47;58.10;;;27.50;;
70367;SDS011;57789;53.868;10.728;2022-11-14T16:35:15;58.57;;;29.80;;
70367;SDS011;57789;53.868;10.728;2022-11-14T16:37:45;59.13;;;28.97;;
70367;SDS011;57789;53.868;10.728;2022-11-14T16:40:12;51.90;;;25.43;;
70367;SDS011;57789;53.868;10.728;2022-11-14T16:42:40;53.20;;;27.37;;
70367;SDS011;57789;53.868;10.728;2022-11-14T16:45:06;59.50;;;28.40;;
70367;SDS011;57789;53.868;10.728;2022-11-14T16:47:32;55.13;;;28.03;;